sensor_id;sensor_type;location;lat;lon;timestamp;pressure;altitude;pressure_sealevel;temperature;humidity
9969;BME280;5025;48.890;9.278;2023-02-21T00:02:05;99312.41;;;6.40;63.49
9969;BME280;5025;48.890;9.278;2023-02-21T00:04:48;99312.41;;;6.40;63.67
9969;BME280;5025;48.890;9.278;2023-02-21T00:07:32;99310.28;;;6.36;63.83
9969;BME280;5025;48.890;9.278;2023-02-21T00:10:17;99304.28;;;6.34;63.79
9969;BME280;5025;48.890;9.278;2023-02-21T00:13:00;99306.31;;;6.32;63.91
9969;BME280;5025;48.890;9.278;2023-02-21T00:15:44;99309.84;;;6.32;63.77
9969;BME280;5025;48.890;9.278;2023-02-21T00:18:33;99310.66;;;6.33;63.85
9969;BME280;5025;48.890;9.278;2023-02-21T00:21:17;99301.13;;;6.30;63.94
9969;BME280;5025;48.890;9.278;2023-02-21T00:24:01;99311.88;;;6.30;64.05
9969;BME280;5025;48.890;9.278;2023-02-21T00:26:45;99297.63;;;6.30;64.07
9969;BME280;5025;48.890;9.278;2023-02-21T00:29:29;99301.31;;;6.28;63.98
9969;BME280;5025;48.890;9.278;2023-02-21T00:32:13;99299.59;;;6.21;64.09
9969;BME280;5025;48.890;9.278;2023-02-21T00:34:57;99295.16;;;6.13;64.45
9969;BME280;5025;48.890;9.278;2023-02-21T00:37:41;99290.84;;;6.12;64.38
9969;BME280;5025;48.890;9.278;2023-02-21T00:40:25;99290.84;;;6.12;64.38
9969;BME280;5025;48.890;9.278;2023-02-21T00:43:09;99286.94;;;6.15;64.33
9969;BME280;5025;48.890;9.278;2023-02-21T00:45:52;99283.31;;;5.92;64.69
9969;BME280;5025;48.890;9.278;2023-02-21T00:48:36;99285.75;;;5.87;65.08
9969;BME280;5025;48.890;9.278;2023-02-21T00:51:20;99282.22;;;5.87;65.06
9969;BME280;5025;48.890;9.278;2023-02-21T00:54:04;99282.22;;;5.87;64.93
9969;BME280;5025;48.890;9.278;2023-02-21T00:56:48;99291.91;;;5.88;65.14
9969;BME280;5025;48.890;9.278;2023-02-21T00:59:32;99285.38;;;5.90;64.89
9969;BME280;5025;48.890;9.278;2023-02-21T01:02:16;99288.06;;;5.90;64.81
9969;BME280;5025;48.890;9.278;2023-02-21T01:05:00;99272.97;;;5.89;64.81
9969;BME280;5025;48.890;9.278;2023-02-21T01:07:44;99283.69;;;5.89;64.78
9969;BME280;5025;48.890;9.278;2023-02-21T01:10:28;99289.25;;;5.88;64.70
9969;BME280;5025;48.890;9.278;2023-02-21T01:13:12;99277.69;;;5.87;64.76
9969;BME280;5025;48.890;9.278;2023-02-21T01:15:55;99280.56;;;5.86;64.61
9969;BME280;5025;48.890;9.278;2023-02-21T01:18:39;99283.63;;;5.83;64.58
9969;BME280;5025;48.890;9.278;2023-02-21T01:21:23;99287.69;;;5.79;64.84
9969;BME280;5025;48.890;9.278;2023-02-21T01:24:10;99287.22;;;5.75;64.82
9969;BME280;5025;48.890;9.278;2023-02-21T01:26:54;99284.19;;;5.78;64.70
9969;BME280;5025;48.890;9.278;2023-02-21T01:29:38;99277.16;;;5.77;64.66
9969;BME280;5025;48.890;9.278;2023-02-21T01:32:22;99280.66;;;5.78;64.82
9969;BME280;5025;48.890;9.278;2023-02-21T01:35:06;99281.88;;;5.75;64.86
9969;BME280;5025;48.890;9.278;2023-02-21T01:37:50;99284.91;;;5.72;64.92
9969;BME280;5025;48.890;9.278;2023-02-21T01:40:37;99281.00;;;5.74;64.86
9969;BME280;5025;48.890;9.278;2023-02-21T01:43:23;99271.03;;;5.68;64.85
9969;BME280;5025;48.890;9.278;2023-02-21T01:46:17;99273.06;;;5.66;64.96
9969;BME280;5025;48.890;9.278;2023-02-21T01:49:05;99261.06;;;5.62;65.10
9969;BME280;5025;48.890;9.278;2023-02-21T01:51:51;99263.75;;;5.47;65.15
9969;BME280;5025;48.890;9.278;2023-02-21T01:54:40;99260.41;;;5.45;65.32
9969;BME280;5025;48.890;9.278;2023-02-21T01:57:25;99262.44;;;5.43;65.31
9969;BME280;5025;48.890;9.278;2023-02-21T02:00:12;99256.09;;;5.44;65.18
9969;BME280;5025;48.890;9.278;2023-02-21T02:02:57;99260.59;;;5.44;65.36
9969;BME280;5025;48.890;9.278;2023-02-21T02:05:48;99268.16;;;5.40;65.28
9969;BME280;5025;48.890;9.278;2023-02-21T02:08:33;99265.84;;;5.37;65.29
9969;BME280;5025;48.890;9.278;2023-02-21T02:19:47;99260.97;;;5.26;65.31
9969;BME280;5025;48.890;9.278;2023-02-21T02:36:14;99251.34;;;5.16;65.42
9969;BME280;5025;48.890;9.278;2023-02-21T02:39:04;99246.81;;;5.17;65.44
9969;BME280;5025;48.890;9.278;2023-02-21T02:44:39;99244.31;;;5.15;65.44
9969;BME280;5025;48.890;9.278;2023-02-21T02:47:07;99248.22;;;5.13;65.54
9969;BME280;5025;48.890;9.278;2023-02-21T02:49:37;99241.34;;;5.10;65.63
9969;BME280;5025;48.890;9.278;2023-02-21T02:52:06;99233.06;;;5.05;65.58
9969;BME280;5025;48.890;9.278;2023-02-21T02:54:31;99236.91;;;5.02;65.66
9969;BME280;5025;48.890;9.278;2023-02-21T02:56:57;99241.44;;;5.02;65.71
9969;BME280;5025;48.890;9.278;2023-02-21T02:59:25;99243.63;;;4.98;65.86
9969;BME280;5025;48.890;9.278;2023-02-21T03:02:36;99246.50;;;4.97;65.88
9969;BME280;5025;48.890;9.278;2023-02-21T03:05:22;99248.88;;;4.92;65.78
9969;BME280;5025;48.890;9.278;2023-02-21T03:10:39;99241.41;;;4.87;65.85
9969;BME280;5025;48.890;9.278;2023-02-21T03:16:31;99247.13;;;4.84;65.91
9969;BME280;5025;48.890;9.278;2023-02-21T03:19:08;99246.66;;;4.80;65.97
9969;BME280;5025;48.890;9.278;2023-02-21T03:21:38;99242.47;;;4.78;65.92
9969;BME280;5025;48.890;9.278;2023-02-21T03:24:07;99241.66;;;4.77;65.84
9969;BME280;5025;48.890;9.278;2023-02-21T03:26:35;99239.03;;;4.69;65.95
9969;BME280;5025;48.890;9.278;2023-02-21T03:29:05;99241.69;;;4.69;66.09
9969;BME280;5025;48.890;9.278;2023-02-21T03:31:36;99233.84;;;4.67;66.06
9969;BME280;5025;48.890;9.278;2023-02-21T03:34:04;99238.22;;;4.69;66.08
9969;BME280;5025;48.890;9.278;2023-02-21T03:36:30;99246.41;;;4.67;66.02
9969;BME280;5025;48.890;9.278;2023-02-21T03:38:56;99241.06;;;4.67;66.11
9969;BME280;5025;48.890;9.278;2023-02-21T03:41:21;99239.91;;;4.61;66.09
9969;BME280;5025;48.890;9.278;2023-02-21T03:43:46;99242.25;;;4.64;66.20
9969;BME280;5025;48.890;9.278;2023-02-21T03:46:11;99241.78;;;4.61;66.13
9969;BME280;5025;48.890;9.278;2023-02-21T03:48:37;99236.78;;;4.58;66.17
9969;BME280;5025;48.890;9.278;2023-02-21T03:51:02;99244.16;;;4.56;66.24
9969;BME280;5025;48.890;9.278;2023-02-21T03:53:28;99249.19;;;4.51;66.38
9969;BME280;5025;48.890;9.278;2023-02-21T03:55:53;99241.78;;;4.38;66.62
9969;BME280;5025;48.890;9.278;2023-02-21T03:58:18;99249.31;;;4.34;66.71
9969;BME280;5025;48.890;9.278;2023-02-21T04:00:43;99249.34;;;4.26;66.73
9969;BME280;5025;48.890;9.278;2023-02-21T04:03:09;99253.06;;;4.25;67.01
9969;BME280;5025;48.890;9.278;2023-02-21T04:05:35;99253.06;;;4.25;66.87
9969;BME280;5025;48.890;9.278;2023-02-21T04:08:00;99246.38;;;4.21;67.01
9969;BME280;5025;48.890;9.278;2023-02-21T04:10:26;99246.09;;;4.16;66.94
9969;BME280;5025;48.890;9.278;2023-02-21T04:12:51;99252.78;;;4.11;67.06
9969;BME280;5025;48.890;9.278;2023-02-21T04:15:16;99238.44;;;4.12;67.23
9969;BME280;5025;48.890;9.278;2023-02-21T04:17:41;99242.38;;;4.17;67.17
9969;BME280;5025;48.890;9.278;2023-02-21T04:20:07;99246.75;;;4.18;67.12
9969;BME280;5025;48.890;9.278;2023-02-21T04:22:32;99246.09;;;4.16;67.13
9969;BME280;5025;48.890;9.278;2023-02-21T04:24:58;99248.75;;;4.16;67.25
9969;BME280;5025;48.890;9.278;2023-02-21T04:27:23;99238.06;;;4.16;67.25
9969;BME280;5025;48.890;9.278;2023-02-21T04:29:49;99247.09;;;4.15;67.26
9969;BME280;5025;48.890;9.278;2023-02-21T04:32:14;99251.28;;;4.09;67.46
9969;BME280;5025;48.890;9.278;2023-02-21T04:34:39;99244.47;;;4.06;67.40
9969;BME280;5025;48.890;9.278;2023-02-21T04:37:05;99239.81;;;4.00;67.67
9969;BME280;5025;48.890;9.278;2023-02-21T04:39:30;99247.53;;;3.95;67.95
9969;BME280;5025;48.890;9.278;2023-02-21T04:41:55;99241.69;;;3.91;68.05
9969;BME280;5025;48.890;9.278;2023-02-21T04:44:20;99242.91;;;3.89;67.98
9969;BME280;5025;48.890;9.278;2023-02-21T04:46:46;99246.56;;;3.88;68.04
9969;BME280;5025;48.890;9.278;2023-02-21T04:49:12;99238.91;;;3.85;68.12
9969;BME280;5025;48.890;9.278;2023-02-21T04:51:37;99240.25;;;3.81;68.09
9969;BME280;5025;48.890;9.278;2023-02-21T04:54:03;99244.94;;;3.79;68.50
9969;BME280;5025;48.890;9.278;2023-02-21T04:56:28;99243.59;;;3.83;68.61
9969;BME280;5025;48.890;9.278;2023-02-21T04:58:54;99235.41;;;3.84;68.49
9969;BME280;5025;48.890;9.278;2023-02-21T05:01:21;99236.69;;;3.88;68.66
9969;BME280;5025;48.890;9.278;2023-02-21T05:03:47;99242.56;;;3.92;68.65
9969;BME280;5025;48.890;9.278;2023-02-21T05:06:17;99243.38;;;3.92;68.66
9969;BME280;5025;48.890;9.278;2023-02-21T05:08:43;99241.34;;;3.94;68.64
9969;BME280;5025;48.890;9.278;2023-02-21T05:11:08;99238.50;;;3.96;68.76
9969;BME280;5025;48.890;9.278;2023-02-21T05:13:33;99235.66;;;3.98;68.81
9969;BME280;5025;48.890;9.278;2023-02-21T05:16:01;99232.97;;;3.98;68.87
9969;BME280;5025;48.890;9.278;2023-02-21T05:18:26;99228.00;;;3.94;69.03
9969;BME280;5025;48.890;9.278;2023-02-21T05:20:53;99231.88;;;3.92;68.98
9969;BME280;5025;48.890;9.278;2023-02-21T05:23:18;99222.16;;;3.91;69.26
9969;BME280;5025;48.890;9.278;2023-02-21T05:26:08;99230.00;;;3.92;69.31
9969;BME280;5025;48.890;9.278;2023-02-21T05:28:34;99236.84;;;3.95;69.36
9969;BME280;5025;48.890;9.278;2023-02-21T05:30:59;99224.97;;;3.98;69.11
9969;BME280;5025;48.890;9.278;2023-02-21T05:33:25;99225.78;;;3.98;69.37
9969;BME280;5025;48.890;9.278;2023-02-21T05:35:50;99217.94;;;3.97;69.40
9969;BME280;5025;48.890;9.278;2023-02-21T05:38:17;99225.31;;;3.94;69.51
9969;BME280;5025;48.890;9.278;2023-02-21T05:40:43;99223.13;;;3.98;69.53
9969;BME280;5025;48.890;9.278;2023-02-21T05:43:08;99218.81;;;3.97;69.61
9969;BME280;5025;48.890;9.278;2023-02-21T05:45:36;99223.66;;;3.93;69.69
9969;BME280;5025;48.890;9.278;2023-02-21T05:48:01;99223.00;;;3.91;69.60
9969;BME280;5025;48.890;9.278;2023-02-21T05:50:28;99228.50;;;3.90;69.71
9969;BME280;5025;48.890;9.278;2023-02-21T05:52:54;99223.00;;;3.91;69.86
9969;BME280;5025;48.890;9.278;2023-02-21T05:55:19;99226.88;;;3.89;69.70
9969;BME280;5025;48.890;9.278;2023-02-21T05:57:45;99222.69;;;3.86;69.60
9969;BME280;5025;48.890;9.278;2023-02-21T06:00:29;99231.69;;;3.85;69.87
9969;BME280;5025;48.890;9.278;2023-02-21T06:02:55;99228.38;;;3.83;69.95
9969;BME280;5025;48.890;9.278;2023-02-21T06:05:22;99232.22;;;3.81;69.78
9969;BME280;5025;48.890;9.278;2023-02-21T06:07:47;99240.25;;;3.81;69.71
9969;BME280;5025;48.890;9.278;2023-02-21T06:10:14;99239.06;;;3.83;69.88
9969;BME280;5025;48.890;9.278;2023-02-21T06:12:40;99239.91;;;3.84;70.13
9969;BME280;5025;48.890;9.278;2023-02-21T06:15:06;99239.53;;;3.87;69.92
9969;BME280;5025;48.890;9.278;2023-02-21T06:17:41;99239.19;;;3.90;69.92
9969;BME280;5025;48.890;9.278;2023-02-21T06:20:09;99248.88;;;3.91;69.93
9969;BME280;5025;48.890;9.278;2023-02-21T06:22:36;99250.91;;;3.89;70.11
9969;BME280;5025;48.890;9.278;2023-02-21T06:25:02;99249.41;;;3.86;70.31
9969;BME280;5025;48.890;9.278;2023-02-21T06:27:27;99248.75;;;3.84;69.91
9969;BME280;5025;48.890;9.278;2023-02-21T06:29:52;99243.94;;;3.80;70.09
9969;BME280;5025;48.890;9.278;2023-02-21T06:32:18;99245.47;;;3.74;69.88
9969;BME280;5025;48.890;9.278;2023-02-21T06:34:43;99243.31;;;3.69;70.22
9969;BME280;5025;48.890;9.278;2023-02-21T06:37:08;99247.31;;;3.65;70.06
9969;BME280;5025;48.890;9.278;2023-02-21T06:39:34;99245.66;;;3.64;70.12
9969;BME280;5025;48.890;9.278;2023-02-21T06:41:59;99243.00;;;3.64;70.02
9969;BME280;5025;48.890;9.278;2023-02-21T06:44:24;99242.66;;;3.59;69.83
9969;BME280;5025;48.890;9.278;2023-02-21T06:46:50;99240.84;;;3.59;70.03
9969;BME280;5025;48.890;9.278;2023-02-21T06:49:15;99247.34;;;3.57;69.93
9969;BME280;5025;48.890;9.278;2023-02-21T06:51:41;99246.34;;;3.58;70.05
9969;BME280;5025;48.890;9.278;2023-02-21T06:54:07;99236.50;;;3.58;70.14
9969;BME280;5025;48.890;9.278;2023-02-21T06:56:33;99241.66;;;3.60;70.10
9969;BME280;5025;48.890;9.278;2023-02-21T06:58:58;99236.16;;;3.62;70.00
9969;BME280;5025;48.890;9.278;2023-02-21T07:01:25;99238.34;;;3.58;70.15
9969;BME280;5025;48.890;9.278;2023-02-21T07:03:52;99233.66;;;3.60;70.12
9969;BME280;5025;48.890;9.278;2023-02-21T07:06:18;99239.81;;;3.61;70.17
9969;BME280;5025;48.890;9.278;2023-02-21T07:08:43;99242.31;;;3.62;70.29
9969;BME280;5025;48.890;9.278;2023-02-21T07:11:09;99236.97;;;3.62;70.22
9969;BME280;5025;48.890;9.278;2023-02-21T07:13:34;99241.16;;;3.65;70.17
9969;BME280;5025;48.890;9.278;2023-02-21T07:16:00;99245.00;;;3.62;70.20
9969;BME280;5025;48.890;9.278;2023-02-21T07:18:26;99244.81;;;3.64;70.27
9969;BME280;5025;48.890;9.278;2023-02-21T07:20:51;99244.81;;;3.64;70.29
9969;BME280;5025;48.890;9.278;2023-02-21T07:23:17;99239.00;;;3.60;70.53
9969;BME280;5025;48.890;9.278;2023-02-21T07:25:42;99241.00;;;3.58;70.44
9969;BME280;5025;48.890;9.278;2023-02-21T07:28:07;99236.03;;;3.55;70.53
9969;BME280;5025;48.890;9.278;2023-02-21T07:30:33;99236.53;;;3.50;70.67
9969;BME280;5025;48.890;9.278;2023-02-21T07:32:58;99233.34;;;3.47;70.76
9969;BME280;5025;48.890;9.278;2023-02-21T07:35:23;99241.19;;;3.48;70.97
9969;BME280;5025;48.890;9.278;2023-02-21T07:37:49;99238.03;;;3.45;71.00
9969;BME280;5025;48.890;9.278;2023-02-21T07:40:14;99239.56;;;3.47;71.22
9969;BME280;5025;48.890;9.278;2023-02-21T07:42:41;99247.22;;;3.50;71.28
9969;BME280;5025;48.890;9.278;2023-02-21T07:45:10;99252.03;;;3.55;71.25
9969;BME280;5025;48.890;9.278;2023-02-21T07:47:35;99247.19;;;3.58;71.33
9969;BME280;5025;48.890;9.278;2023-02-21T07:50:01;99247.31;;;3.65;71.23
9969;BME280;5025;48.890;9.278;2023-02-21T07:52:26;99242.31;;;3.70;71.28
9969;BME280;5025;48.890;9.278;2023-02-21T07:54:51;99242.78;;;3.74;71.20
9969;BME280;5025;48.890;9.278;2023-02-21T07:57:17;99245.41;;;3.82;71.45
9969;BME280;5025;48.890;9.278;2023-02-21T07:59:43;99249.25;;;3.88;71.39
9969;BME280;5025;48.890;9.278;2023-02-21T08:02:10;99248.53;;;3.94;71.58
9969;BME280;5025;48.890;9.278;2023-02-21T08:04:36;99245.53;;;3.97;71.46
9969;BME280;5025;48.890;9.278;2023-02-21T08:07:03;99251.47;;;4.07;71.34
9969;BME280;5025;48.890;9.278;2023-02-21T08:09:29;99255.28;;;4.13;71.45
9969;BME280;5025;48.890;9.278;2023-02-21T08:11:54;99249.72;;;4.23;71.36
9969;BME280;5025;48.890;9.278;2023-02-21T08:14:19;99255.66;;;4.33;71.39
9969;BME280;5025;48.890;9.278;2023-02-21T08:16:44;99249.97;;;4.36;71.42
9969;BME280;5025;48.890;9.278;2023-02-21T08:19:10;99255.38;;;4.28;72.08
9969;BME280;5025;48.890;9.278;2023-02-21T08:21:35;99251.84;;;4.27;72.73
9969;BME280;5025;48.890;9.278;2023-02-21T08:24:01;99252.28;;;4.39;72.87
9969;BME280;5025;48.890;9.278;2023-02-21T08:26:26;99252.72;;;4.51;72.48
9969;BME280;5025;48.890;9.278;2023-02-21T08:28:52;99255.94;;;4.46;73.04
9969;BME280;5025;48.890;9.278;2023-02-21T08:31:17;99252.66;;;4.59;72.86
9969;BME280;5025;48.890;9.278;2023-02-21T08:33:44;99248.19;;;4.75;72.62
9969;BME280;5025;48.890;9.278;2023-02-21T08:36:09;99251.28;;;4.87;72.52
9969;BME280;5025;48.890;9.278;2023-02-21T08:38:34;99253.66;;;4.81;72.77
9969;BME280;5025;48.890;9.278;2023-02-21T08:41:00;99247.88;;;4.93;72.86
9969;BME280;5025;48.890;9.278;2023-02-21T08:43:26;99244.94;;;5.02;72.76
9969;BME280;5025;48.890;9.278;2023-02-21T08:45:52;99247.00;;;5.15;72.35
9969;BME280;5025;48.890;9.278;2023-02-21T08:48:18;99247.84;;;5.31;72.37
9969;BME280;5025;48.890;9.278;2023-02-21T08:50:43;99251.06;;;5.26;72.72
9969;BME280;5025;48.890;9.278;2023-02-21T08:53:10;99248.66;;;5.31;72.86
9969;BME280;5025;48.890;9.278;2023-02-21T08:55:36;99251.72;;;5.43;72.80
9969;BME280;5025;48.890;9.278;2023-02-21T08:58:03;99247.69;;;5.47;73.03
9969;BME280;5025;48.890;9.278;2023-02-21T09:00:29;99241.66;;;5.60;73.02
9969;BME280;5025;48.890;9.278;2023-02-21T09:02:55;99244.63;;;5.80;72.79
9969;BME280;5025;48.890;9.278;2023-02-21T09:05:26;99248.47;;;5.92;72.42
9969;BME280;5025;48.890;9.278;2023-02-21T09:07:53;99240.34;;;6.01;72.32
9969;BME280;5025;48.890;9.278;2023-02-21T09:10:23;99241.53;;;6.13;72.07
9969;BME280;5025;48.890;9.278;2023-02-21T09:12:48;99240.88;;;6.26;72.13
9969;BME280;5025;48.890;9.278;2023-02-21T09:15:14;99240.16;;;6.39;71.89
9969;BME280;5025;48.890;9.278;2023-02-21T09:17:40;99243.56;;;6.48;71.78
9969;BME280;5025;48.890;9.278;2023-02-21T09:20:07;99233.78;;;6.61;71.66
9969;BME280;5025;48.890;9.278;2023-02-21T09:22:33;99230.41;;;6.74;71.54
9969;BME280;5025;48.890;9.278;2023-02-21T09:24:59;99237.09;;;6.85;71.19
9969;BME280;5025;48.890;9.278;2023-02-21T09:27:25;99231.16;;;6.90;71.33
9969;BME280;5025;48.890;9.278;2023-02-21T09:30:05;99230.84;;;7.06;71.09
9969;BME280;5025;48.890;9.278;2023-02-21T09:32:30;99226.41;;;7.20;70.90
9969;BME280;5025;48.890;9.278;2023-02-21T09:34:56;99214.94;;;7.33;70.61
9969;BME280;5025;48.890;9.278;2023-02-21T09:37:21;99228.63;;;7.45;70.67
9969;BME280;5025;48.890;9.278;2023-02-21T09:39:47;99223.34;;;7.58;70.27
9969;BME280;5025;48.890;9.278;2023-02-21T09:42:17;99220.53;;;7.73;70.26
9969;BME280;5025;48.890;9.278;2023-02-21T09:44:42;99221.84;;;7.90;69.66
9969;BME280;5025;48.890;9.278;2023-02-21T09:47:14;99218.19;;;8.05;69.41
9969;BME280;5025;48.890;9.278;2023-02-21T09:49:42;99225.44;;;8.18;69.13
9969;BME280;5025;48.890;9.278;2023-02-21T09:52:21;99216.81;;;8.29;68.80
9969;BME280;5025;48.890;9.278;2023-02-21T09:54:55;99217.28;;;8.46;68.69
9969;BME280;5025;48.890;9.278;2023-02-21T09:57:21;99215.88;;;8.57;68.46
9969;BME280;5025;48.890;9.278;2023-02-21T09:59:47;99212.34;;;8.76;68.17
9969;BME280;5025;48.890;9.278;2023-02-21T10:02:47;99212.75;;;8.93;67.78
9969;BME280;5025;48.890;9.278;2023-02-21T10:05:28;99203.88;;;9.06;67.39
9969;BME280;5025;48.890;9.278;2023-02-21T10:08:00;99198.84;;;9.23;67.10
9969;BME280;5025;48.890;9.278;2023-02-21T10:18:55;99195.34;;;9.95;64.92
9969;BME280;5025;48.890;9.278;2023-02-21T10:21:45;99200.78;;;10.33;64.28
9969;BME280;5025;48.890;9.278;2023-02-21T10:24:20;99198.22;;;10.70;63.25
9969;BME280;5025;48.890;9.278;2023-02-21T10:26:51;99194.22;;;11.05;62.64
9969;BME280;5025;48.890;9.278;2023-02-21T10:29:23;99186.59;;;11.20;62.09
9969;BME280;5025;48.890;9.278;2023-02-21T10:31:53;99190.94;;;11.40;61.45
9969;BME280;5025;48.890;9.278;2023-02-21T10:34:23;99187.97;;;11.48;61.18
9969;BME280;5025;48.890;9.278;2023-02-21T10:36:51;99188.09;;;11.72;60.86
9969;BME280;5025;48.890;9.278;2023-02-21T10:39:21;99180.19;;;11.89;60.21
9969;BME280;5025;48.890;9.278;2023-02-21T10:41:50;99184.06;;;11.99;59.99
9969;BME280;5025;48.890;9.278;2023-02-21T10:44:27;99185.19;;;12.22;59.24
9969;BME280;5025;48.890;9.278;2023-02-21T10:46:59;99184.88;;;12.30;58.73
9969;BME280;5025;48.890;9.278;2023-02-21T10:49:32;99182.94;;;12.49;58.21
9969;BME280;5025;48.890;9.278;2023-02-21T10:52:09;99181.44;;;12.65;57.72
9969;BME280;5025;48.890;9.278;2023-02-21T10:54:34;99175.00;;;12.78;57.27
9969;BME280;5025;48.890;9.278;2023-02-21T10:57:01;99177.69;;;12.90;56.85
9969;BME280;5025;48.890;9.278;2023-02-21T10:59:31;99171.25;;;13.03;56.58
9969;BME280;5025;48.890;9.278;2023-02-21T11:01:58;99172.88;;;13.16;56.27
9969;BME280;5025;48.890;9.278;2023-02-21T11:04:34;99163.44;;;13.30;55.38
9969;BME280;5025;48.890;9.278;2023-02-21T11:07:05;99163.72;;;13.40;55.37
9969;BME280;5025;48.890;9.278;2023-02-21T11:09:43;99165.66;;;13.57;54.59
9969;BME280;5025;48.890;9.278;2023-02-21T11:17:20;99145.69;;;13.75;53.00
9969;BME280;5025;48.890;9.278;2023-02-21T11:19:52;99141.63;;;13.89;52.97
9969;BME280;5025;48.890;9.278;2023-02-21T11:22:23;99134.38;;;14.07;52.44
9969;BME280;5025;48.890;9.278;2023-02-21T11:25:22;99128.63;;;14.20;51.99
9969;BME280;5025;48.890;9.278;2023-02-21T11:30:39;99129.75;;;14.36;50.53
9969;BME280;5025;48.890;9.278;2023-02-21T11:33:08;99117.41;;;14.45;49.88
9969;BME280;5025;48.890;9.278;2023-02-21T11:35:36;99119.31;;;14.62;49.38
9969;BME280;5025;48.890;9.278;2023-02-21T11:38:06;99114.06;;;14.72;48.50
9969;BME280;5025;48.890;9.278;2023-02-21T11:40:46;99101.25;;;14.90;48.35
9969;BME280;5025;48.890;9.278;2023-02-21T11:43:28;99095.47;;;15.03;47.96
9969;BME280;5025;48.890;9.278;2023-02-21T11:46:16;99093.47;;;15.15;47.73
9969;BME280;5025;48.890;9.278;2023-02-21T11:48:59;99082.72;;;15.26;47.16
9969;BME280;5025;48.890;9.278;2023-02-21T11:51:38;99079.81;;;15.32;46.66
9969;BME280;5025;48.890;9.278;2023-02-21T11:54:05;99083.41;;;15.38;46.11
9969;BME280;5025;48.890;9.278;2023-02-21T11:56:50;99079.69;;;15.44;45.87
9969;BME280;5025;48.890;9.278;2023-02-21T11:59:34;99075.44;;;15.53;45.25
9969;BME280;5025;48.890;9.278;2023-02-21T12:16:23;99040.78;;;16.25;43.35
9969;BME280;5025;48.890;9.278;2023-02-21T12:19:25;99032.16;;;16.39;43.11
9969;BME280;5025;48.890;9.278;2023-02-21T12:22:18;99028.41;;;16.45;42.78
9969;BME280;5025;48.890;9.278;2023-02-21T12:25:09;99014.88;;;16.60;42.62
9969;BME280;5025;48.890;9.278;2023-02-21T12:38:35;98987.13;;;17.22;41.56
9969;BME280;5025;48.890;9.278;2023-02-21T12:41:37;98979.53;;;17.34;41.10
9969;BME280;5025;48.890;9.278;2023-02-21T12:44:20;98978.44;;;17.40;40.39
9969;BME280;5025;48.890;9.278;2023-02-21T12:46:58;98972.16;;;17.39;40.35
9969;BME280;5025;48.890;9.278;2023-02-21T12:49:41;98971.91;;;17.51;40.24
9969;BME280;5025;48.890;9.278;2023-02-21T12:57:14;98954.75;;;17.87;39.53
9969;BME280;5025;48.890;9.278;2023-02-21T13:03:03;98939.75;;;18.15;38.76
9969;BME280;5025;48.890;9.278;2023-02-21T13:08:13;98926.56;;;18.48;38.64
9969;BME280;5025;48.890;9.278;2023-02-21T13:13:31;98929.00;;;18.60;37.82
9969;BME280;5025;48.890;9.278;2023-02-21T13:15:59;98914.75;;;18.73;37.78
9969;BME280;5025;48.890;9.278;2023-02-21T13:18:33;98912.78;;;18.89;37.47
9969;BME280;5025;48.890;9.278;2023-02-21T13:27:29;98894.53;;;19.24;36.42
9969;BME280;5025;48.890;9.278;2023-02-21T13:32:58;98889.44;;;19.52;35.93
9969;BME280;5025;48.890;9.278;2023-02-21T13:35:30;98883.53;;;19.69;35.70
9969;BME280;5025;48.890;9.278;2023-02-21T13:37:57;98875.13;;;19.95;35.39
9969;BME280;5025;48.890;9.278;2023-02-21T13:40:50;98873.75;;;20.21;35.35
9969;BME280;5025;48.890;9.278;2023-02-21T13:43:28;98869.75;;;20.38;34.94
9969;BME280;5025;48.890;9.278;2023-02-21T13:55:19;98852.31;;;21.15;33.70
9969;BME280;5025;48.890;9.278;2023-02-21T14:08:24;98823.50;;;21.83;31.93
9969;BME280;5025;48.890;9.278;2023-02-21T14:10:55;98820.47;;;21.99;31.85
9969;BME280;5025;48.890;9.278;2023-02-21T14:13:37;98813.56;;;22.15;31.51
9969;BME280;5025;48.890;9.278;2023-02-21T14:18:39;98810.75;;;22.34;30.97
9969;BME280;5025;48.890;9.278;2023-02-21T14:21:16;98806.16;;;22.44;30.67
9969;BME280;5025;48.890;9.278;2023-02-21T14:23:50;98801.63;;;22.62;30.98
9969;BME280;5025;48.890;9.278;2023-02-21T14:26:56;98803.66;;;22.84;30.75
9969;BME280;5025;48.890;9.278;2023-02-21T14:29:41;98805.94;;;23.04;30.15
9969;BME280;5025;48.890;9.278;2023-02-21T14:37:15;98789.63;;;23.31;29.39
9969;BME280;5025;48.890;9.278;2023-02-21T14:39:46;98790.69;;;23.43;29.45
9969;BME280;5025;48.890;9.278;2023-02-21T14:59:09;98776.63;;;24.08;29.02
9969;BME280;5025;48.890;9.278;2023-02-21T15:04:50;98774.53;;;24.13;29.04
9969;BME280;5025;48.890;9.278;2023-02-21T15:07:31;98767.41;;;24.12;29.41
9969;BME280;5025;48.890;9.278;2023-02-21T15:12:45;98764.13;;;24.10;29.08
9969;BME280;5025;48.890;9.278;2023-02-21T15:15:37;98768.69;;;24.06;29.44
9969;BME280;5025;48.890;9.278;2023-02-21T15:18:33;98761.84;;;24.04;29.56
9969;BME280;5025;48.890;9.278;2023-02-21T15:23:27;98764.06;;;23.93;29.64
9969;BME280;5025;48.890;9.278;2023-02-21T15:25:55;98754.91;;;23.84;29.90
9969;BME280;5025;48.890;9.278;2023-02-21T15:28:26;98756.97;;;23.78;29.93
9969;BME280;5025;48.890;9.278;2023-02-21T15:30:58;98755.00;;;23.70;29.69
9969;BME280;5025;48.890;9.278;2023-02-21T15:33:24;98758.69;;;23.56;29.87
9969;BME280;5025;48.890;9.278;2023-02-21T15:35:54;98746.78;;;23.47;29.70
9969;BME280;5025;48.890;9.278;2023-02-21T15:38:22;98748.47;;;23.34;29.67
9969;BME280;5025;48.890;9.278;2023-02-21T15:40:53;98747.59;;;23.25;29.97
9969;BME280;5025;48.890;9.278;2023-02-21T15:43:28;98745.94;;;23.15;29.88
9969;BME280;5025;48.890;9.278;2023-02-21T15:45:55;98743.38;;;23.05;30.29
9969;BME280;5025;48.890;9.278;2023-02-21T15:48:22;98743.97;;;22.93;30.22
9969;BME280;5025;48.890;9.278;2023-02-21T15:50:48;98739.00;;;22.81;30.73
9969;BME280;5025;48.890;9.278;2023-02-21T15:53:21;98742.91;;;22.66;30.89
9969;BME280;5025;48.890;9.278;2023-02-21T15:55:49;98732.84;;;22.48;31.23
9969;BME280;5025;48.890;9.278;2023-02-21T15:58:19;98738.72;;;22.32;31.52
9969;BME280;5025;48.890;9.278;2023-02-21T16:01:01;98732.47;;;22.13;31.95
9969;BME280;5025;48.890;9.278;2023-02-21T16:03:34;98722.81;;;21.88;32.19
9969;BME280;5025;48.890;9.278;2023-02-21T16:08:39;98721.34;;;21.29;33.08
9969;BME280;5025;48.890;9.278;2023-02-21T16:11:13;98727.34;;;20.99;33.58
9969;BME280;5025;48.890;9.278;2023-02-21T16:13:39;98721.22;;;20.69;34.15
9969;BME280;5025;48.890;9.278;2023-02-21T16:16:05;98720.00;;;20.37;34.66
9969;BME280;5025;48.890;9.278;2023-02-21T16:18:32;98716.63;;;20.02;35.31
9969;BME280;5025;48.890;9.278;2023-02-21T16:21:00;98714.50;;;19.69;35.79
9969;BME280;5025;48.890;9.278;2023-02-21T16:23:39;98721.09;;;19.39;36.47
9969;BME280;5025;48.890;9.278;2023-02-21T16:28:35;98730.31;;;18.79;37.15
9969;BME280;5025;48.890;9.278;2023-02-21T16:31:03;98725.53;;;18.56;37.47